Time;durP1;ratioP1;P1;durP2;ratioP2;P2;SDS_P1;SDS_P2;PMS_P1;PMS_P2;Temp;Humidity;BMP_temperature;BMP_pressure;BME280_temperature;BME280_humidity;BME280_pressure;Samples;Min_cycle;Max_cycle;Signal;HPM_P1;HPM_P2
2023/12/18 00:00:57;;;;;;;2.47;1.20;;;6.70;99.90;;;;;;7837759;28;20244;-87
2023/12/18 00:04:43;;;;;;;1.70;1.00;;;6.70;99.90;;;;;;7858330;28;20193;-86
2023/12/18 00:08:28;;;;;;;1.57;1.20;;;6.80;99.90;;;;;;7863598;28;20185;-87
2023/12/18 00:12:14;;;;;;;1.53;1.07;;;6.80;99.90;;;;;;7852879;28;20182;-86
2023/12/18 00:16:01;;;;;;;1.97;0.90;;;6.90;99.90;;;;;;7837545;28;20198;-88
2023/12/18 00:19:46;;;;;;;1.13;1.03;;;7.10;99.90;;;;;;7837500;28;20283;-87
2023/12/18 00:23:32;;;;;;;1.73;0.93;;;7.10;99.90;;;;;;7857216;28;20173;-86
2023/12/18 00:27:18;;;;;;;1.17;0.93;;;7.10;99.90;;;;;;7868242;28;20232;-87
2023/12/18 00:31:03;;;;;;;1.57;1.07;;;7.10;99.90;;;;;;7840542;28;20181;-87
2023/12/18 00:34:49;;;;;;;1.77;1.07;;;7.10;99.90;;;;;;7837199;28;20202;-87
2023/12/18 00:38:37;;;;;;;1.33;1.07;;;7.00;99.90;;;;;;7853247;28;20197;-87
2023/12/18 00:42:22;;;;;;;1.93;1.30;;;7.00;99.90;;;;;;7854495;28;20174;-87
2023/12/18 00:46:08;;;;;;;2.70;1.63;;;6.80;99.90;;;;;;7838265;28;20193;-87
2023/12/18 00:49:54;;;;;;;2.47;1.40;;;6.70;99.90;;;;;;7867128;28;20712;-87
2023/12/18 00:53:39;;;;;;;2.27;1.30;;;6.70;99.90;;;;;;7846831;28;20275;-88
2023/12/18 00:57:25;;;;;;;5.00;1.20;;;6.70;99.90;;;;;;7835677;28;20569;-87
2023/12/18 01:01:10;;;;;;;2.47;1.47;;;6.70;99.90;;;;;;7835530;28;20292;-86
2023/12/18 01:04:56;;;;;;;2.90;1.33;;;6.70;99.90;;;;;;7845913;28;20236;-87
2023/12/18 01:08:42;;;;;;;2.93;1.20;;;6.70;99.90;;;;;;7878248;28;20177;-86
2023/12/18 01:12:27;;;;;;;1.47;1.00;;;6.80;99.90;;;;;;7877068;28;20316;-87
2023/12/18 01:16:13;;;;;;;1.17;1.00;;;6.80;99.90;;;;;;7846282;28;20202;-87
2023/12/18 01:19:59;;;;;;;1.27;1.10;;;6.80;99.90;;;;;;7846973;28;20213;-86
2023/12/18 01:23:44;;;;;;;3.87;1.03;;;6.80;99.90;;;;;;7845619;28;20182;-87
2023/12/18 01:27:30;;;;;;;2.13;1.30;;;6.90;99.90;;;;;;7844010;28;20255;-87
2023/12/18 01:31:23;;;;;;;2.87;1.30;;;6.70;99.90;;;;;;7846277;28;20235;-87
2023/12/18 01:35:09;;;;;;;1.23;1.00;;;6.70;99.90;;;;;;7858124;28;20645;-86
2023/12/18 01:38:55;;;;;;;2.27;1.43;;;6.70;99.90;;;;;;7876674;28;20593;-87
2023/12/18 01:42:45;;;;;;;2.00;1.40;;;6.70;99.90;;;;;;7876795;28;20169;-86
2023/12/18 01:46:35;;;;;;;1.77;1.23;;;6.60;99.90;;;;;;7862946;28;20202;-88
2023/12/18 01:50:20;;;;;;;2.80;1.30;;;6.70;99.90;;;;;;7855086;28;20632;-87
2023/12/18 01:54:07;;;;;;;2.27;1.53;;;6.60;99.90;;;;;;7852074;28;20667;-87
2023/12/18 01:57:52;;;;;;;1.83;1.30;;;6.60;99.90;;;;;;7845482;28;20210;-87
2023/12/18 02:01:38;;;;;;;3.33;1.43;;;6.60;99.90;;;;;;7846702;28;20292;-86
2023/12/18 02:05:24;;;;;;;1.53;1.10;;;6.60;99.90;;;;;;7846439;28;20213;-86
2023/12/18 02:09:09;;;;;;;1.67;1.20;;;6.60;99.90;;;;;;7868448;28;20189;-86
2023/12/18 02:12:55;;;;;;;1.83;1.10;;;6.60;99.90;;;;;;7876135;28;20240;-87
2023/12/18 02:16:40;;;;;;;1.90;1.20;;;6.60;99.90;;;;;;7856942;28;20197;-87
2023/12/18 02:20:26;;;;;;;3.10;1.17;;;6.60;99.90;;;;;;7846307;28;20209;-87
2023/12/18 02:24:12;;;;;;;1.40;1.03;;;6.60;99.90;;;;;;7871010;28;20173;-88
2023/12/18 02:27:58;;;;;;;2.90;1.20;;;6.50;99.90;;;;;;7871274;28;20633;-87
2023/12/18 02:31:43;;;;;;;1.80;1.20;;;6.70;99.90;;;;;;7862598;28;20192;-86
2023/12/18 02:35:29;;;;;;;1.63;0.90;;;6.60;99.90;;;;;;7865384;28;20205;-87
2023/12/18 02:39:15;;;;;;;1.87;1.00;;;6.60;99.90;;;;;;7870982;28;20851;-86
2023/12/18 02:43:00;;;;;;;0.90;0.90;;;6.60;99.90;;;;;;7871021;28;20224;-87
2023/12/18 02:46:46;;;;;;;1.80;1.10;;;6.50;99.90;;;;;;7870731;28;20586;-87
2023/12/18 02:50:32;;;;;;;1.10;1.00;;;6.50;99.90;;;;;;7852878;28;20713;-87
2023/12/18 02:54:17;;;;;;;0.90;0.80;;;6.60;99.90;;;;;;7873867;28;20193;-87
2023/12/18 02:58:03;;;;;;;2.30;0.90;;;6.60;99.90;;;;;;7902927;28;20205;-87
2023/12/18 03:01:50;;;;;;;0.87;0.80;;;6.70;99.90;;;;;;7870000;28;20652;-87
2023/12/18 03:05:35;;;;;;;1.27;0.80;;;6.70;99.90;;;;;;7838865;28;20665;-87
2023/12/18 03:09:21;;;;;;;1.00;0.63;;;6.80;99.90;;;;;;7851124;28;20639;-87
2023/12/18 03:13:07;;;;;;;1.13;0.90;;;6.80;99.90;;;;;;7869908;28;20186;-87
2023/12/18 03:16:52;;;;;;;1.00;0.80;;;6.80;99.90;;;;;;7869585;28;20292;-87
2023/12/18 03:20:38;;;;;;;1.03;0.70;;;6.80;99.90;;;;;;7869637;28;20205;-87
2023/12/18 03:24:24;;;;;;;2.83;0.80;;;6.90;99.90;;;;;;7869230;28;20173;-87
2023/12/18 03:28:12;;;;;;;0.73;0.70;;;6.90;99.90;;;;;;7855498;28;20240;-87
2023/12/18 03:31:57;;;;;;;0.70;0.60;;;6.90;99.90;;;;;;7856090;28;20234;-87
2023/12/18 03:35:43;;;;;;;1.33;0.77;;;6.90;99.90;;;;;;7870117;28;20667;-86
2023/12/18 03:39:28;;;;;;;1.33;0.83;;;6.90;99.90;;;;;;7845548;28;20206;-87
2023/12/18 03:43:14;;;;;;;3.43;2.13;;;6.90;99.90;;;;;;7837476;28;20180;-87
2023/12/18 03:47:00;;;;;;;1.30;0.90;;;6.80;99.90;;;;;;7837189;28;20839;-87
2023/12/18 03:50:46;;;;;;;2.00;1.50;;;6.80;99.90;;;;;;7848297;28;20204;-87
2023/12/18 03:54:31;;;;;;;2.30;1.60;;;6.80;99.90;;;;;;7841137;28;20193;-87
2023/12/18 03:58:17;;;;;;;1.37;1.03;;;6.80;99.90;;;;;;7837037;28;20224;-86
2023/12/18 04:02:03;;;;;;;1.57;0.93;;;6.90;99.90;;;;;;7837123;28;20178;-86
2023/12/18 04:05:48;;;;;;;1.03;0.70;;;7.00;99.90;;;;;;7862385;28;20196;-86
2023/12/18 04:09:37;;;;;;;0.90;0.70;;;7.00;99.90;;;;;;7855721;28;20186;-88
2023/12/18 04:13:23;;;;;;;1.10;0.83;;;6.90;99.90;;;;;;7867810;28;20177;-87
2023/12/18 04:17:09;;;;;;;2.00;0.90;;;7.10;99.90;;;;;;7851195;28;20252;-87
2023/12/18 04:20:54;;;;;;;2.70;1.13;;;7.10;99.90;;;;;;7856095;28;20211;-87
2023/12/18 04:24:40;;;;;;;0.80;0.80;;;7.10;99.90;;;;;;7867288;28;20204;-87
2023/12/18 04:28:26;;;;;;;3.30;1.60;;;7.00;99.90;;;;;;7867816;28;20593;-87
2023/12/18 04:32:11;;;;;;;3.20;1.90;;;6.90;99.90;;;;;;7849063;28;20269;-87
2023/12/18 04:35:59;;;;;;;1.17;0.90;;;7.00;99.90;;;;;;7866097;28;20584;-87
2023/12/18 04:39:45;;;;;;;1.53;0.73;;;7.00;99.90;;;;;;7866439;28;20209;-86
2023/12/18 04:43:30;;;;;;;0.87;0.70;;;7.00;99.90;;;;;;7843620;28;20186;-87
2023/12/18 04:47:16;;;;;;;0.77;0.67;;;7.10;99.90;;;;;;7848234;28;20235;-88
2023/12/18 04:51:02;;;;;;;1.03;0.70;;;7.20;99.90;;;;;;7858199;28;20182;-86
2023/12/18 04:54:48;;;;;;;0.77;0.57;;;7.30;99.90;;;;;;7846616;28;20750;-88
2023/12/18 04:58:36;;;;;;;0.63;0.60;;;7.40;99.90;;;;;;7866748;28;20659;-87
2023/12/18 05:02:22;;;;;;;0.60;0.60;;;7.50;99.90;;;;;;7838704;28;20729;-87
2023/12/18 05:06:21;;;;;;;1.00;0.60;;;7.50;99.90;;;;;;7856802;28;20644;-87
2023/12/18 05:10:07;;;;;;;1.00;0.80;;;7.50;99.90;;;;;;7858494;28;20194;-87
2023/12/18 05:13:53;;;;;;;0.73;0.70;;;7.50;99.90;;;;;;7858164;28;20677;-87
2023/12/18 05:17:39;;;;;;;0.60;0.50;;;7.40;99.90;;;;;;7864403;28;20216;-87
2023/12/18 05:21:25;;;;;;;1.73;1.00;;;7.50;99.90;;;;;;7843238;28;20296;-87
2023/12/18 05:25:11;;;;;;;1.30;0.80;;;7.50;99.90;;;;;;7852655;28;20205;-87
2023/12/18 05:28:58;;;;;;;0.93;0.60;;;7.50;99.90;;;;;;7834654;28;20216;-87
2023/12/18 05:32:44;;;;;;;0.73;0.73;;;7.40;99.90;;;;;;7866052;28;20181;-87
2023/12/18 05:36:30;;;;;;;1.70;0.90;;;7.40;99.90;;;;;;7842304;28;20198;-88
2023/12/18 05:40:16;;;;;;;1.23;0.90;;;7.40;99.90;;;;;;7852612;28;20205;-89
2023/12/18 05:44:01;;;;;;;1.37;0.80;;;7.30;99.90;;;;;;7857132;28;20239;-88
2023/12/18 05:47:47;;;;;;;1.90;0.97;;;7.30;99.90;;;;;;7854072;28;20213;-88
2023/12/18 05:51:32;;;;;;;1.63;1.07;;;7.20;99.90;;;;;;7848550;28;20592;-88
2023/12/18 05:55:18;;;;;;;3.37;1.20;;;7.10;99.90;;;;;;7862626;28;20221;-88
2023/12/18 05:59:04;;;;;;;1.40;1.30;;;7.00;99.90;;;;;;7841407;28;20220;-88
2023/12/18 06:02:49;;;;;;;1.93;1.17;;;7.00;99.90;;;;;;7850749;28;20189;-89
2023/12/18 06:06:35;;;;;;;1.17;1.03;;;7.00;99.90;;;;;;7841382;28;20266;-88
2023/12/18 06:10:21;;;;;;;2.10;1.40;;;7.00;99.90;;;;;;7857668;28;20220;-88
2023/12/18 06:14:06;;;;;;;1.70;1.20;;;6.90;99.90;;;;;;7859544;28;20193;-88
2023/12/18 06:17:52;;;;;;;1.50;1.00;;;6.90;99.90;;;;;;7872234;28;20284;-88
2023/12/18 06:21:40;;;;;;;2.20;1.00;;;6.90;99.90;;;;;;7867426;28;20213;-88
2023/12/18 06:25:26;;;;;;;1.57;1.00;;;7.00;99.90;;;;;;7871413;28;20201;-88
2023/12/18 06:29:12;;;;;;;1.50;1.10;;;7.10;99.90;;;;;;7872041;28;20715;-88
2023/12/18 06:32:57;;;;;;;4.93;1.20;;;7.10;99.90;;;;;;7854881;28;20178;-87
2023/12/18 06:36:43;;;;;;;2.07;1.10;;;7.20;99.90;;;;;;7871095;28;20205;-88
2023/12/18 06:40:29;;;;;;;1.53;1.03;;;7.20;99.90;;;;;;7871475;28;20274;-88
2023/12/18 06:44:14;;;;;;;1.63;1.17;;;7.10;99.90;;;;;;7870969;28;20185;-89
2023/12/18 06:48:05;;;;;;;2.07;1.43;;;7.10;99.90;;;;;;7859525;28;20198;-89
2023/12/18 06:51:50;;;;;;;1.90;1.20;;;7.10;99.90;;;;;;7845183;28;20239;-87
2023/12/18 06:55:36;;;;;;;3.03;1.60;;;7.00;99.90;;;;;;7868738;28;20265;-87
2023/12/18 06:59:22;;;;;;;1.70;1.20;;;6.90;99.90;;;;;;7851371;28;20217;-86
2023/12/18 07:03:08;;;;;;;2.60;1.67;;;6.90;99.90;;;;;;7850785;28;20212;-87
2023/12/18 07:06:54;;;;;;;3.07;1.60;;;6.70;99.90;;;;;;7843880;28;20236;-88
2023/12/18 07:10:39;;;;;;;2.80;1.70;;;6.70;99.90;;;;;;7841936;28;20190;-87
2023/12/18 07:14:25;;;;;;;3.03;1.73;;;6.60;99.90;;;;;;7835777;28;20213;-88
2023/12/18 07:18:13;;;;;;;5.57;1.90;;;6.70;99.90;;;;;;7847710;28;20209;-88
2023/12/18 07:21:59;;;;;;;3.53;2.40;;;6.50;99.90;;;;;;7858521;28;20261;-88
2023/12/18 07:25:44;;;;;;;9.03;3.80;;;6.50;99.90;;;;;;7837532;28;20198;-88
2023/12/18 07:29:30;;;;;;;8.20;3.03;;;6.30;99.90;;;;;;7861098;28;20174;-88
2023/12/18 07:33:16;;;;;;;3.20;2.40;;;6.20;99.90;;;;;;7858902;28;20553;-87
2023/12/18 07:37:02;;;;;;;2.20;1.43;;;6.10;99.90;;;;;;7851716;28;20209;-87
2023/12/18 07:40:48;;;;;;;3.13;1.50;;;6.20;99.90;;;;;;7848759;28;20236;-88
2023/12/18 07:44:34;;;;;;;2.37;1.53;;;6.10;99.90;;;;;;7854886;28;20239;-87
2023/12/18 07:48:21;;;;;;;2.63;1.50;;;6.10;99.90;;;;;;7856494;28;20174;-88
2023/12/18 07:52:07;;;;;;;1.97;1.57;;;6.10;99.90;;;;;;7838460;28;20181;-87
2023/12/18 07:55:52;;;;;;;2.23;1.70;;;6.10;99.90;;;;;;7836909;28;20214;-87
2023/12/18 07:59:39;;;;;;;3.13;1.47;;;6.20;99.90;;;;;;7851767;28;20209;-87
2023/12/18 08:03:25;;;;;;;2.13;1.60;;;6.20;99.90;;;;;;7855872;28;20258;-87
2023/12/18 08:07:11;;;;;;;2.87;1.93;;;6.20;99.90;;;;;;7836408;28;20194;-88
2023/12/18 08:10:56;;;;;;;2.87;1.80;;;6.30;99.90;;;;;;7836659;28;20201;-87
2023/12/18 08:14:43;;;;;;;3.23;1.90;;;6.30;99.90;;;;;;7849135;28;20185;-88
2023/12/18 08:18:29;;;;;;;4.80;3.43;;;6.30;99.90;;;;;;7839784;28;20182;-87
2023/12/18 08:22:15;;;;;;;5.57;2.80;;;6.30;99.90;;;;;;7836127;28;20272;-88
2023/12/18 08:26:00;;;;;;;7.40;3.37;;;6.50;99.90;;;;;;7840568;28;20217;-87
2023/12/18 08:29:48;;;;;;;3.33;1.90;;;6.60;99.90;;;;;;7858192;28;20896;-87
2023/12/18 08:33:34;;;;;;;2.10;1.60;;;6.80;99.90;;;;;;7855298;28;20260;-88
2023/12/18 08:37:20;;;;;;;4.10;1.97;;;6.90;99.90;;;;;;7847873;28;20251;-87
2023/12/18 08:41:05;;;;;;;2.83;1.80;;;7.10;99.90;;;;;;7842202;28;20213;-86
2023/12/18 08:44:51;;;;;;;2.27;1.73;;;7.10;99.90;;;;;;7860972;28;20281;-86
2023/12/18 08:48:36;;;;;;;2.17;1.60;;;7.10;99.90;;;;;;7843761;28;20182;-88
2023/12/18 08:52:22;;;;;;;2.20;1.73;;;7.10;99.90;;;;;;7840014;28;20206;-88
2023/12/18 08:56:08;;;;;;;2.83;1.73;;;7.10;99.90;;;;;;7835562;28;20217;-87
2023/12/18 08:59:56;;;;;;;3.17;2.00;;;7.10;99.90;;;;;;7837635;28;20758;-88
2023/12/18 09:03:42;;;;;;;2.93;1.87;;;7.30;99.90;;;;;;7850812;28;20189;-88
2023/12/18 09:07:27;;;;;;;2.07;1.60;;;7.10;99.90;;;;;;7839212;28;20236;-88
2023/12/18 09:11:13;;;;;;;4.70;2.30;;;7.20;99.90;;;;;;7846398;28;20233;-88
2023/12/18 09:14:59;;;;;;;2.90;1.80;;;7.20;99.90;;;;;;7835099;28;20205;-88
2023/12/18 09:18:44;;;;;;;3.73;1.97;;;7.10;99.90;;;;;;7837112;28;20198;-88
2023/12/18 09:22:30;;;;;;;2.80;1.73;;;7.10;99.90;;;;;;7844741;28;20181;-87
2023/12/18 09:26:15;;;;;;;2.97;1.70;;;7.10;99.90;;;;;;7873116;28;20733;-87
2023/12/18 09:30:01;;;;;;;3.00;1.87;;;7.20;99.90;;;;;;7872279;28;20181;-87
2023/12/18 09:33:47;;;;;;;2.17;1.40;;;7.10;99.90;;;;;;7868566;28;20181;-88
2023/12/18 09:37:32;;;;;;;4.60;1.97;;;7.20;99.90;;;;;;7863026;28;20202;-87
2023/12/18 09:41:26;;;;;;;2.50;1.70;;;7.20;99.90;;;;;;7862508;28;20186;-88
2023/12/18 09:45:12;;;;;;;3.70;1.90;;;7.40;99.90;;;;;;7848763;28;20692;-88
2023/12/18 09:48:57;;;;;;;3.60;1.70;;;7.40;99.90;;;;;;7860053;28;20193;-88
2023/12/18 09:52:52;;;;;;;2.67;1.70;;;7.40;99.90;;;;;;7861737;28;20651;-88
2023/12/18 09:56:38;;;;;;;5.87;4.00;;;7.50;99.90;;;;;;7870947;28;20204;-87
2023/12/18 10:00:25;;;;;;;3.27;2.20;;;7.50;99.90;;;;;;7862241;28;20198;-88
2023/12/18 10:04:11;;;;;;;5.20;2.20;;;7.60;99.90;;;;;;7862838;28;20181;-87
2023/12/18 10:08:00;;;;;;;3.10;2.00;;;7.60;99.90;;;;;;7847949;28;20205;-88
2023/12/18 10:11:48;;;;;;;3.60;2.00;;;7.70;99.90;;;;;;7864824;28;20264;-87
2023/12/18 10:15:35;;;;;;;11.50;5.90;;;7.60;99.90;;;;;;7863717;28;20224;-87
2023/12/18 10:19:27;;;;;;;4.30;2.37;;;7.60;99.90;;;;;;7860252;28;20194;-88
2023/12/18 10:23:12;;;;;;;2.80;2.07;;;7.60;99.90;;;;;;7854242;28;20565;-86
2023/12/18 10:26:58;;;;;;;4.30;2.10;;;7.70;99.90;;;;;;7857918;28;20233;-87
2023/12/18 10:30:45;;;;;;;4.57;2.10;;;7.70;99.90;;;;;;7844932;28;20574;-88
2023/12/18 10:34:36;;;;;;;4.60;1.70;;;7.70;99.90;;;;;;7840127;28;20181;-88
2023/12/18 10:38:27;;;;;;;4.20;1.80;;;7.80;99.90;;;;;;7853120;28;20221;-88
2023/12/18 10:42:31;;;;;;;4.67;2.10;;;7.80;99.90;;;;;;7870219;28;20593;-87
2023/12/18 10:46:17;;;;;;;4.40;1.90;;;7.90;99.90;;;;;;7865467;28;20219;-88
2023/12/18 10:50:05;;;;;;;3.00;1.80;;;7.90;99.90;;;;;;7843323;28;20213;-87
2023/12/18 10:53:53;;;;;;;9.97;2.20;;;7.90;99.90;;;;;;7861258;28;20211;-88
2023/12/18 10:57:42;;;;;;;2.77;1.83;;;8.00;99.90;;;;;;7860052;28;20219;-87
2023/12/18 11:01:30;;;;;;;3.57;2.13;;;8.10;99.90;;;;;;7855029;28;20201;-88
2023/12/18 11:05:16;;;;;;;3.77;2.47;;;8.10;99.90;;;;;;7856784;28;20343;-88
2023/12/18 11:09:03;;;;;;;3.00;2.30;;;8.10;99.90;;;;;;7853851;28;20190;-88
2023/12/18 11:12:53;;;;;;;4.83;2.03;;;8.10;99.90;;;;;;7870364;28;20172;-87
2023/12/18 11:17:16;;;;;;;3.57;2.47;;;8.20;99.90;;;;;;7862223;28;20225;-88
2023/12/18 11:21:02;;;;;;;3.70;2.43;;;8.30;99.90;;;;;;7850960;28;20233;-87
2023/12/18 11:24:47;;;;;;;4.73;2.20;;;8.30;99.90;;;;;;7852148;28;20227;-88
2023/12/18 11:28:35;;;;;;;3.53;2.57;;;8.30;99.90;;;;;;7855820;28;20375;-88
2023/12/18 11:32:46;;;;;;;4.60;2.40;;;8.40;99.90;;;;;;7850580;28;20182;-87
2023/12/18 11:36:40;;;;;;;4.23;2.10;;;8.40;99.90;;;;;;7865866;28;20197;-88
2023/12/18 11:40:31;;;;;;;16.60;12.77;;;8.40;99.90;;;;;;7862796;28;20251;-88
2023/12/18 11:44:21;;;;;;;3.30;2.97;;;8.50;99.90;;;;;;7861952;28;20177;-89
2023/12/18 11:48:07;;;;;;;2.47;1.90;;;8.50;99.90;;;;;;7859578;28;20208;-89
2023/12/18 11:51:53;;;;;;;3.20;1.80;;;8.50;99.90;;;;;;7840143;28;20190;-88
2023/12/18 11:55:43;;;;;;;3.97;2.10;;;8.60;99.90;;;;;;7857144;28;20295;-88
2023/12/18 11:59:29;;;;;;;3.60;2.00;;;8.60;99.90;;;;;;7849495;28;20208;-89
2023/12/18 12:03:16;;;;;;;3.10;2.03;;;8.60;99.90;;;;;;7836814;28;20189;-89
2023/12/18 12:07:02;;;;;;;2.63;1.93;;;8.70;99.90;;;;;;7837890;28;20589;-89
2023/12/18 12:10:51;;;;;;;7.70;3.80;;;8.70;99.90;;;;;;7842263;28;20181;-88
2023/12/18 12:14:38;;;;;;;9.87;4.90;;;8.70;99.90;;;;;;7840790;28;20665;-89
2023/12/18 12:18:33;;;;;;;5.20;3.43;;;8.70;99.90;;;;;;7843046;28;20185;-89
2023/12/18 12:22:19;;;;;;;7.83;4.90;;;8.70;99.90;;;;;;7852963;28;20188;-89
2023/12/18 12:26:06;;;;;;;7.67;3.43;;;8.80;99.90;;;;;;7848064;28;20571;-88
2023/12/18 12:29:52;;;;;;;26.43;21.33;;;8.80;99.90;;;;;;7854942;28;20190;-88
2023/12/18 12:33:42;;;;;;;5.03;3.60;;;8.80;99.90;;;;;;7865202;28;20185;-88
2023/12/18 12:37:30;;;;;;;3.87;1.80;;;8.80;99.90;;;;;;7864472;28;20207;-87
2023/12/18 12:41:16;;;;;;;3.13;1.90;;;8.90;99.90;;;;;;7867569;28;20280;-89
2023/12/18 12:45:02;;;;;;;3.10;2.10;;;8.90;99.90;;;;;;7867437;28;20701;-88
2023/12/18 12:48:48;;;;;;;4.37;1.90;;;9.00;99.90;;;;;;7861374;28;20654;-88
2023/12/18 12:52:38;;;;;;;3.80;1.87;;;9.00;99.90;;;;;;7867718;28;20177;-89
2023/12/18 12:56:23;;;;;;;2.23;1.70;;;9.00;99.90;;;;;;7862219;28;20212;-87
2023/12/18 13:00:09;;;;;;;5.20;2.53;;;9.10;99.90;;;;;;7849132;28;20232;-89
2023/12/18 13:03:55;;;;;;;5.10;2.30;;;9.00;99.90;;;;;;7854583;28;20184;-89
2023/12/18 13:07:43;;;;;;;3.27;2.27;;;9.00;99.90;;;;;;7867381;28;20644;-89
2023/12/18 13:11:31;;;;;;;4.53;2.57;;;9.00;99.90;;;;;;7867425;28;20185;-89
2023/12/18 13:15:17;;;;;;;13.67;8.07;;;9.00;99.90;;;;;;7860689;28;20224;-89
2023/12/18 13:19:02;;;;;;;67.57;45.77;;;9.00;99.90;;;;;;7862882;28;20229;-87
2023/12/18 13:22:48;;;;;;;137.37;82.07;;;9.00;99.90;;;;;;7865046;28;20215;-87
2023/12/18 13:26:33;;;;;;;21.67;14.30;;;9.10;99.90;;;;;;7836673;28;20264;-88
2023/12/18 13:30:19;;;;;;;8.20;4.23;;;9.00;99.90;;;;;;7835472;28;20651;-87
2023/12/18 13:34:05;;;;;;;4.10;2.90;;;9.10;99.90;;;;;;7844588;28;20185;-88
2023/12/18 13:37:50;;;;;;;4.70;2.50;;;9.10;99.90;;;;;;7848776;28;20826;-89
2023/12/18 13:41:36;;;;;;;4.47;2.50;;;9.10;99.90;;;;;;7855094;28;20205;-89
2023/12/18 13:45:23;;;;;;;4.53;2.50;;;9.10;99.90;;;;;;7853521;28;20194;-88
2023/12/18 13:49:08;;;;;;;6.50;3.07;;;9.00;99.90;;;;;;7837279;28;20182;-88
2023/12/18 13:52:54;;;;;;;4.70;2.90;;;8.90;99.90;;;;;;7851241;28;20192;-88
2023/12/18 13:56:42;;;;;;;7.37;2.90;;;8.90;99.90;;;;;;7866742;28;20230;-89
2023/12/18 14:00:28;;;;;;;6.17;2.90;;;8.80;99.90;;;;;;7866233;28;20197;-87
2023/12/18 14:04:16;;;;;;;7.13;2.77;;;8.80;99.90;;;;;;7860761;28;20177;-88
2023/12/18 14:08:02;;;;;;;6.37;2.40;;;8.80;99.90;;;;;;7866532;28;20255;-88
2023/12/18 14:11:48;;;;;;;3.60;2.57;;;8.70;99.90;;;;;;7868600;28;20177;-90
2023/12/18 14:15:34;;;;;;;7.97;2.10;;;8.70;99.90;;;;;;7872068;28;20244;-88
2023/12/18 14:19:19;;;;;;;3.43;1.73;;;8.70;99.90;;;;;;7841817;28;20244;-88
2023/12/18 14:23:06;;;;;;;6.00;2.30;;;8.60;99.90;;;;;;7840807;28;20189;-88
2023/12/18 14:26:51;;;;;;;4.77;2.10;;;8.60;99.90;;;;;;7840739;28;20208;-89
2023/12/18 14:30:37;;;;;;;5.53;2.47;;;8.60;99.90;;;;;;7847160;28;20174;-90
2023/12/18 14:34:23;;;;;;;6.30;2.90;;;8.50;99.90;;;;;;7858693;28;20246;-87
2023/12/18 14:38:08;;;;;;;5.47;2.50;;;8.40;99.90;;;;;;7839039;28;20248;-87
2023/12/18 14:41:55;;;;;;;5.83;2.50;;;8.30;99.90;;;;;;7841026;28;20244;-88
2023/12/18 14:45:40;;;;;;;8.90;2.57;;;8.10;99.90;;;;;;7863044;28;20197;-87
2023/12/18 14:49:26;;;;;;;5.93;2.60;;;8.00;99.90;;;;;;7870678;28;20247;-88
2023/12/18 14:53:12;;;;;;;6.53;2.40;;;8.00;99.90;;;;;;7869671;28;20193;-88
2023/12/18 14:56:58;;;;;;;5.37;2.47;;;7.90;99.90;;;;;;7867228;28;20200;-87
2023/12/18 15:00:43;;;;;;;3.77;2.23;;;7.70;99.90;;;;;;7872433;28;20197;-88
2023/12/18 15:04:29;;;;;;;5.07;2.10;;;7.60;99.90;;;;;;7870806;28;20174;-88
2023/12/18 15:08:15;;;;;;;3.00;2.10;;;7.50;99.90;;;;;;7843176;28;20335;-89
2023/12/18 15:12:01;;;;;;;5.73;2.80;;;7.40;99.90;;;;;;7839736;28;20660;-89
2023/12/18 15:15:46;;;;;;;4.40;2.80;;;7.40;99.90;;;;;;7839757;28;20844;-89
2023/12/18 15:19:35;;;;;;;3.70;2.40;;;7.40;99.90;;;;;;7839544;28;20194;-88
2023/12/18 15:23:21;;;;;;;3.30;2.30;;;7.20;99.90;;;;;;7841190;28;20274;-88
2023/12/18 15:27:07;;;;;;;4.93;3.07;;;7.20;99.90;;;;;;7869844;28;20338;-89
2023/12/18 15:30:53;;;;;;;4.43;2.80;;;7.20;99.90;;;;;;7838641;28;20182;-88
2023/12/18 15:34:39;;;;;;;5.70;2.77;;;7.10;99.90;;;;;;7862325;28;20203;-88
2023/12/18 15:38:24;;;;;;;10.90;5.70;;;7.00;99.90;;;;;;7868094;28;20570;-88
2023/12/18 15:42:10;;;;;;;9.83;5.80;;;7.00;99.90;;;;;;7868777;28;20648;-88
2023/12/18 15:45:59;;;;;;;8.20;4.33;;;6.90;99.90;;;;;;7869196;28;20702;-89
2023/12/18 15:49:44;;;;;;;13.30;5.90;;;6.90;99.90;;;;;;7863395;28;20228;-88
2023/12/18 15:53:31;;;;;;;14.97;7.40;;;6.80;99.90;;;;;;7867126;28;20201;-88
2023/12/18 15:57:17;;;;;;;23.60;11.73;;;6.80;99.90;;;;;;7870065;28;20678;-88
2023/12/18 16:01:03;;;;;;;26.60;13.37;;;6.70;99.90;;;;;;7838121;28;20638;-88
2023/12/18 16:04:48;;;;;;;23.80;11.80;;;6.60;99.90;;;;;;7855712;28;20177;-89
2023/12/18 16:08:34;;;;;;;21.80;10.90;;;6.60;99.90;;;;;;7869177;28;20174;-89
2023/12/18 16:12:20;;;;;;;15.23;9.17;;;6.50;99.90;;;;;;7863276;28;20174;-87
2023/12/18 16:16:06;;;;;;;11.23;6.97;;;6.50;99.90;;;;;;7862499;28;20225;-89
2023/12/18 16:19:52;;;;;;;5.93;4.20;;;6.50;99.90;;;;;;7868374;28;20201;-88
2023/12/18 16:23:38;;;;;;;5.27;2.87;;;6.60;99.90;;;;;;7868381;28;20185;-88
2023/12/18 16:27:31;;;;;;;3.93;2.20;;;6.80;99.90;;;;;;7869455;28;20193;-88
2023/12/18 16:31:17;;;;;;;2.67;2.03;;;7.00;99.90;;;;;;7860307;28;20243;-88
2023/12/18 16:35:03;;;;;;;3.60;2.50;;;7.20;99.90;;;;;;7864659;28;20213;-88
2023/12/18 16:38:52;;;;;;;3.77;2.63;;;7.20;99.90;;;;;;7897661;28;20184;-88
2023/12/18 16:42:37;;;;;;;5.30;3.77;;;7.20;99.90;;;;;;7898300;28;20184;-87
2023/12/18 16:46:24;;;;;;;3.13;2.50;;;7.20;99.70;;;;;;7870664;28;20563;-87
2023/12/18 16:50:13;;;;;;;7.17;3.00;;;7.10;99.90;;;;;;7861883;28;20188;-89
2023/12/18 16:53:59;;;;;;;5.60;3.40;;;7.00;99.90;;;;;;7860821;28;20299;-89
2023/12/18 16:57:47;;;;;;;7.33;3.97;;;6.80;99.90;;;;;;7840658;28;20744;-87
2023/12/18 17:01:33;;;;;;;8.07;3.70;;;6.70;99.90;;;;;;7867960;28;20418;-89
2023/12/18 17:05:19;;;;;;;7.30;3.50;;;6.60;99.90;;;;;;7861892;28;20197;-88
2023/12/18 17:09:05;;;;;;;5.47;3.90;;;6.50;99.90;;;;;;7857178;28;20196;-87
2023/12/18 17:12:51;;;;;;;8.00;4.10;;;6.40;99.90;;;;;;7861639;28;20189;-88
2023/12/18 17:16:39;;;;;;;7.83;4.60;;;6.40;99.90;;;;;;7852929;28;20217;-88
2023/12/18 17:20:26;;;;;;;3.93;2.63;;;6.30;99.90;;;;;;7859700;28;20207;-89
2023/12/18 17:24:11;;;;;;;8.83;2.47;;;6.30;99.90;;;;;;7866547;28;20185;-89
2023/12/18 17:28:05;;;;;;;7.00;2.73;;;6.50;99.60;;;;;;7866852;28;20209;-89
2023/12/18 17:31:53;;;;;;;4.17;2.80;;;6.80;96.80;;;;;;7840419;28;20182;-88
2023/12/18 17:35:43;;;;;;;6.23;4.07;;;6.90;95.60;;;;;;7860009;28;20679;-89
2023/12/18 17:39:33;;;;;;;3.77;2.80;;;7.00;95.20;;;;;;7867694;28;20630;-89
2023/12/18 17:43:21;;;;;;;4.53;3.23;;;7.00;95.20;;;;;;7863039;28;20231;-89
2023/12/18 17:47:09;;;;;;;4.17;3.20;;;6.90;96.30;;;;;;7872216;28;20197;-89
2023/12/18 17:50:55;;;;;;;5.90;3.70;;;6.80;99.90;;;;;;7865745;28;20189;-89
2023/12/18 17:54:40;;;;;;;3.50;2.37;;;6.60;99.90;;;;;;7842227;28;20259;-89
2023/12/18 17:58:30;;;;;;;4.27;2.40;;;6.50;99.90;;;;;;7860542;28;20202;-88
2023/12/18 18:02:25;;;;;;;4.50;2.10;;;6.40;99.90;;;;;;7872250;28;20694;-90
2023/12/18 18:06:10;;;;;;;3.93;2.40;;;6.30;99.90;;;;;;7867722;28;20205;-89
2023/12/18 18:09:56;;;;;;;4.23;2.47;;;6.20;99.90;;;;;;7870983;28;20181;-89
2023/12/18 18:13:43;;;;;;;4.07;2.43;;;6.10;99.90;;;;;;7872409;28;20181;-89
2023/12/18 18:17:37;;;;;;;7.40;4.47;;;6.10;99.90;;;;;;7868211;28;20205;-89
2023/12/18 18:21:26;;;;;;;7.67;4.37;;;6.00;99.90;;;;;;7872387;28;20204;-89
2023/12/18 18:25:19;;;;;;;7.67;4.33;;;6.00;99.90;;;;;;7871915;28;20221;-88
2023/12/18 18:29:04;;;;;;;10.30;6.60;;;6.00;99.90;;;;;;7872658;28;20173;-89
2023/12/18 18:32:52;;;;;;;6.43;3.37;;;6.20;99.90;;;;;;7848773;28;20210;-90
2023/12/18 18:36:41;;;;;;;5.40;3.93;;;6.20;99.90;;;;;;7840643;28;20625;-89
2023/12/18 18:40:29;;;;;;;6.27;4.20;;;6.20;99.90;;;;;;7846342;28;20571;-89
2023/12/18 18:44:16;;;;;;;6.17;4.10;;;6.10;99.90;;;;;;7857355;28;20189;-89
2023/12/18 18:48:06;;;;;;;6.47;3.87;;;6.00;99.90;;;;;;7851956;28;20212;-87
2023/12/18 18:51:54;;;;;;;5.93;3.47;;;5.90;99.90;;;;;;7850266;28;20177;-87
2023/12/18 18:55:39;;;;;;;4.00;2.73;;;6.00;99.90;;;;;;7856631;28;20254;-89
2023/12/18 18:59:25;;;;;;;5.43;2.53;;;6.10;99.90;;;;;;7837466;28;20198;-88
2023/12/18 19:03:12;;;;;;;6.43;3.00;;;6.20;95.40;;;;;;7845479;28;20177;-88
2023/12/18 19:06:59;;;;;;;11.67;4.03;;;6.50;94.10;;;;;;7852282;28;20292;-86
2023/12/18 19:10:45;;;;;;;4.13;2.93;;;6.50;92.40;;;;;;7864431;28;20570;-86
2023/12/18 19:14:30;;;;;;;5.93;3.17;;;6.70;90.70;;;;;;7866825;28;20207;-88
2023/12/18 19:18:17;;;;;;;3.77;2.37;;;6.80;90.40;;;;;;7859787;28;20209;-87
2023/12/18 19:22:04;;;;;;;4.93;2.40;;;6.90;89.80;;;;;;7867374;28;21598;-89
2023/12/18 19:25:49;;;;;;;3.57;2.40;;;6.90;89.40;;;;;;7862948;28;20197;-89
2023/12/18 19:29:35;;;;;;;3.50;2.50;;;6.90;87.80;;;;;;7851182;28;20193;-88
2023/12/18 19:33:22;;;;;;;3.80;2.20;;;7.00;87.50;;;;;;7858096;28;20685;-87
2023/12/18 19:37:08;;;;;;;3.50;2.17;;;7.00;86.40;;;;;;7860042;28;20200;-87
2023/12/18 19:40:54;;;;;;;6.17;3.47;;;6.90;86.00;;;;;;7869060;28;20280;-88
2023/12/18 19:44:39;;;;;;;13.27;6.33;;;7.00;85.00;;;;;;7867609;28;20178;-88
2023/12/18 19:48:25;;;;;;;7.97;4.30;;;7.10;85.00;;;;;;7857881;28;20185;-89
2023/12/18 19:52:11;;;;;;;7.87;4.07;;;7.10;83.40;;;;;;7859520;28;20238;-88